Time;durP1;ratioP1;P1;durP2;ratioP2;P2;SDS_P1;SDS_P2;PMS_P1;PMS_P2;Temp;Humidity;BMP_temperature;BMP_pressure;BME280_temperature;BME280_humidity;BME280_pressure;Samples;Min_cycle;Max_cycle;Signal;HPM_P1;HPM_P2
2023/03/05 00:00:14;;;;;;;;;;;;;;;3.36;100.00;99319.69;5094308;28;1945;-65
2023/03/05 00:02:41;;;;;;;;;;;;;;;3.17;100.00;99313.13;5094430;28;875;-67
2023/03/05 00:05:08;;;;;;;;;;;;;;;3.17;100.00;99318.59;5094468;28;898;-64
2023/03/05 00:07:35;;;;;;;;;;;;;;;3.18;100.00;99320.19;5094502;28;874;-64
2023/03/05 00:10:03;;;;;;;;;;;;;;;3.16;100.00;99319.75;5092595;28;1227;-65
2023/03/05 00:12:29;;;;;;;;;;;;;;;3.24;100.00;99321.44;5093754;28;815;-64
2023/03/05 00:14:55;;;;;;;;;;;;;;;3.25;100.00;99317.56;5094174;28;870;-64
2023/03/05 00:17:22;;;;;;;;;;;;;;;3.38;100.00;99323.63;5094639;28;800;-65
2023/03/05 00:19:48;;;;;;;;;;;;;;;3.29;100.00;99334.00;5094259;28;843;-66
2023/03/05 00:22:15;;;;;;;;;;;;;;;3.15;100.00;99323.63;5093790;28;1967;-64
2023/03/05 00:24:42;;;;;;;;;;;;;;;3.09;100.00;99321.56;5093767;28;894;-64
2023/03/05 00:27:09;;;;;;;;;;;;;;;3.00;100.00;99322.56;5094060;28;862;-64
2023/03/05 00:29:36;;;;;;;;;;;;;;;2.97;100.00;99322.53;5093734;28;827;-65
2023/03/05 00:32:02;;;;;;;;;;;;;;;2.87;100.00;99318.44;5093637;28;851;-65
2023/03/05 00:34:28;;;;;;;;;;;;;;;2.91;100.00;99313.84;5093650;28;903;-64
2023/03/05 00:36:55;;;;;;;;;;;;;;;2.89;100.00;99316.16;5093501;28;905;-66
2023/03/05 00:39:21;;;;;;;;;;;;;;;2.96;100.00;99315.47;5093599;28;874;-66
2023/03/05 00:41:48;;;;;;;;;;;;;;;3.03;100.00;99316.41;5093357;28;1973;-64
2023/03/05 00:44:15;;;;;;;;;;;;;;;3.13;100.00;99320.47;5093439;28;811;-64
2023/03/05 00:46:41;;;;;;;;;;;;;;;3.16;100.00;99318.94;5093372;28;584;-65
2023/03/05 00:49:08;;;;;;;;;;;;;;;3.19;100.00;99315.50;5093380;28;914;-65
2023/03/05 00:51:34;;;;;;;;;;;;;;;3.13;100.00;99319.69;5093271;28;858;-65
2023/03/05 00:54:01;;;;;;;;;;;;;;;3.08;100.00;99318.03;5093180;28;831;-67
2023/03/05 00:56:27;;;;;;;;;;;;;;;3.01;100.00;99309.75;5093227;28;839;-64
2023/03/05 00:58:53;;;;;;;;;;;;;;;3.00;100.00;99317.13;5093196;28;1045;-65
2023/03/05 01:01:20;;;;;;;;;;;;;;;2.88;100.00;99316.50;5093122;28;1890;-64
2023/03/05 01:03:47;;;;;;;;;;;;;;;2.77;100.00;99316.31;5093015;28;843;-64
2023/03/05 01:06:15;;;;;;;;;;;;;;;2.75;100.00;99307.69;5093064;28;882;-64
2023/03/05 01:08:42;;;;;;;;;;;;;;;2.83;100.00;99293.81;5093270;28;1048;-65
2023/03/05 01:11:09;;;;;;;;;;;;;;;2.97;100.00;99303.44;5092711;28;1405;-64
2023/03/05 01:13:36;;;;;;;;;;;;;;;2.90;100.00;99300.56;5092865;28;894;-66
2023/03/05 01:16:03;;;;;;;;;;;;;;;2.74;100.00;99303.41;5092851;28;827;-67
2023/03/05 01:18:29;;;;;;;;;;;;;;;2.59;100.00;99303.13;5092796;28;831;-66
2023/03/05 01:20:56;;;;;;;;;;;;;;;2.56;100.00;99297.59;5092688;28;1906;-66
2023/03/05 01:23:22;;;;;;;;;;;;;;;2.52;100.00;99299.47;5092459;28;984;-64
2023/03/05 01:25:54;;;;;;;;;;;;;;;2.49;100.00;99302.91;5092616;28;855;-64
2023/03/05 01:28:20;;;;;;;;;;;;;;;2.55;100.00;99296.81;5092650;28;906;-65
2023/03/05 01:30:47;;;;;;;;;;;;;;;2.59;100.00;99311.31;5092576;28;902;-65
2023/03/05 01:33:14;;;;;;;;;;;;;;;2.58;100.00;99312.47;5092470;28;878;-67
2023/03/05 01:35:41;;;;;;;;;;;;;;;2.42;100.00;99309.81;5092413;28;956;-67
2023/03/05 01:38:08;;;;;;;;;;;;;;;2.25;100.00;99308.31;5092488;28;855;-66
2023/03/05 01:40:34;;;;;;;;;;;;;;;2.23;100.00;99307.09;5092273;28;1881;-66
2023/03/05 01:43:15;;;;;;;;;;;;;;;2.27;100.00;99309.91;5092315;28;867;-66
2023/03/05 01:46:00;;;;;;;;;;;;;;;2.31;100.00;99306.09;5092268;28;808;-66
2023/03/05 01:48:26;;;;;;;;;;;;;;;2.22;100.00;99305.53;5092335;28;910;-65
2023/03/05 01:50:53;;;;;;;;;;;;;;;2.19;100.00;99306.22;5092205;28;959;-65
2023/03/05 01:53:19;;;;;;;;;;;;;;;2.25;100.00;99302.84;5092286;28;823;-65
2023/03/05 01:55:45;;;;;;;;;;;;;;;2.20;100.00;99302.38;5092176;28;827;-65
2023/03/05 01:58:12;;;;;;;;;;;;;;;2.12;100.00;99297.91;5092179;28;882;-67
2023/03/05 02:00:49;;;;;;;;;;;;;;;2.11;100.00;99299.81;5092102;28;1885;-66
2023/03/05 02:03:16;;;;;;;;;;;;;;;2.10;100.00;99309.16;5092103;28;918;-66
2023/03/05 02:05:43;;;;;;;;;;;;;;;2.16;100.00;99315.91;5091938;28;843;-67
2023/03/05 02:08:11;;;;;;;;;;;;;;;2.17;100.00;99319.41;5092047;28;928;-67
2023/03/05 02:10:41;;;;;;;;;;;;;;;2.29;100.00;99311.09;5091655;28;1204;-66
2023/03/05 02:13:09;;;;;;;;;;;;;;;2.48;100.00;99315.78;5091874;28;839;-66
2023/03/05 02:15:37;;;;;;;;;;;;;;;2.56;100.00;99312.03;5091980;28;879;-66
2023/03/05 02:18:03;;;;;;;;;;;;;;;2.68;100.00;99313.81;5091955;28;863;-66
2023/03/05 02:20:42;;;;;;;;;;;;;;;2.76;100.00;99317.47;5091659;28;1909;-67
2023/03/05 02:23:08;;;;;;;;;;;;;;;2.81;100.00;99311.72;5091650;28;906;-67
2023/03/05 02:25:35;;;;;;;;;;;;;;;2.95;100.00;99305.72;5091800;28;860;-67
2023/03/05 02:28:16;;;;;;;;;;;;;;;3.12;100.00;99305.25;5091637;28;979;-64
2023/03/05 02:30:43;;;;;;;;;;;;;;;3.27;100.00;99311.72;5091863;28;803;-68
2023/03/05 02:33:10;;;;;;;;;;;;;;;3.36;100.00;99312.25;5092492;28;854;-66
2023/03/05 02:35:36;;;;;;;;;;;;;;;3.48;100.00;99309.34;5091140;28;840;-67
2023/03/05 02:38:03;;;;;;;;;;;;;;;3.52;100.00;99305.88;5091617;28;839;-67
2023/03/05 02:40:30;;;;;;;;;;;;;;;3.46;100.00;99311.66;5091390;28;1944;-65
2023/03/05 02:42:57;;;;;;;;;;;;;;;3.59;100.00;99297.78;5091561;28;819;-64
2023/03/05 02:45:23;;;;;;;;;;;;;;;3.59;100.00;99295.06;5091460;28;822;-65
2023/03/05 02:47:50;;;;;;;;;;;;;;;3.40;100.00;99304.13;5091438;28;863;-65
2023/03/05 02:50:16;;;;;;;;;;;;;;;3.16;100.00;99297.91;5091484;28;863;-66
2023/03/05 02:52:43;;;;;;;;;;;;;;;2.95;100.00;99294.81;5091316;28;846;-66
2023/03/05 02:55:10;;;;;;;;;;;;;;;2.81;100.00;99303.53;5090065;28;1313;-66
2023/03/05 02:57:36;;;;;;;;;;;;;;;2.61;100.00;99295.38;5091388;28;897;-64
2023/03/05 03:00:03;;;;;;;;;;;;;;;2.48;100.00;99307.59;5091395;28;854;-64
2023/03/05 03:02:30;;;;;;;;;;;;;;;2.48;100.00;99318.50;5091169;28;1914;-66
2023/03/05 03:04:56;;;;;;;;;;;;;;;2.41;100.00;99319.16;5091389;28;819;-64
2023/03/05 03:07:23;;;;;;;;;;;;;;;2.43;100.00;99318.78;5091234;28;870;-64
2023/03/05 03:09:49;;;;;;;;;;;;;;;2.37;100.00;99318.28;5091227;28;1212;-66
2023/03/05 03:12:16;;;;;;;;;;;;;;;2.18;100.00;99327.25;5091275;28;862;-64
2023/03/05 03:14:43;;;;;;;;;;;;;;;2.06;100.00;99332.81;5091227;28;847;-64
2023/03/05 03:17:11;;;;;;;;;;;;;;;1.98;100.00;99320.19;5091299;28;819;-65
2023/03/05 03:19:38;;;;;;;;;;;;;;;2.04;100.00;99321.50;5089797;28;946;-64
2023/03/05 03:22:05;;;;;;;;;;;;;;;2.02;100.00;99315.59;5090965;28;1973;-65
2023/03/05 03:24:32;;;;;;;;;;;;;;;2.08;100.00;99313.41;5091071;28;936;-66
2023/03/05 03:26:58;;;;;;;;;;;;;;;2.14;100.00;99307.31;5091147;28;878;-67
2023/03/05 03:29:25;;;;;;;;;;;;;;;2.24;100.00;99304.00;5091112;28;834;-64
2023/03/05 03:31:51;;;;;;;;;;;;;;;2.49;100.00;99309.16;5091090;28;905;-64
2023/03/05 03:34:18;;;;;;;;;;;;;;;2.74;100.00;99304.19;5091153;28;917;-64
2023/03/05 03:36:45;;;;;;;;;;;;;;;2.92;100.00;99300.97;5091028;28;827;-64
2023/03/05 03:39:13;;;;;;;;;;;;;;;3.03;100.00;99294.56;5089690;28;1299;-65
2023/03/05 03:41:44;;;;;;;;;;;;;;;3.12;100.00;99299.78;5090907;28;1953;-65
2023/03/05 03:44:11;;;;;;;;;;;;;;;3.04;100.00;99295.34;5090955;28;881;-65
2023/03/05 03:46:39;;;;;;;;;;;;;;;2.82;100.00;99297.69;5092480;28;886;-66
2023/03/05 03:49:07;;;;;;;;;;;;;;;2.73;100.00;99299.06;5094528;28;819;-67
2023/03/05 03:51:33;;;;;;;;;;;;;;;2.64;100.00;99291.13;5094455;28;870;-66
2023/03/05 03:54:00;;;;;;;;;;;;;;;2.38;100.00;99287.13;5094719;28;811;-66
2023/03/05 03:56:27;;;;;;;;;;;;;;;2.26;100.00;99281.81;5094341;28;870;-65
2023/03/05 03:58:52;;;;;;;;;;;;;;;2.29;100.00;99277.59;5094335;28;893;-64
2023/03/05 04:01:19;;;;;;;;;;;;;;;2.25;100.00;99274.78;5094181;28;1889;-64
2023/03/05 04:03:46;;;;;;;;;;;;;;;2.29;100.00;99281.09;5094304;28;843;-64
2023/03/05 04:06:13;;;;;;;;;;;;;;;2.27;100.00;99277.94;5094203;28;949;-67
2023/03/05 04:08:39;;;;;;;;;;;;;;;2.12;100.00;99285.06;5094308;28;947;-66
2023/03/05 04:11:06;;;;;;;;;;;;;;;2.11;100.00;99279.94;5093865;28;1272;-66
2023/03/05 04:13:33;;;;;;;;;;;;;;;1.99;100.00;99283.63;5094091;28;815;-65
2023/03/05 04:15:59;;;;;;;;;;;;;;;2.09;100.00;99283.06;5093984;28;835;-64
2023/03/05 04:18:26;;;;;;;;;;;;;;;2.16;100.00;99269.56;5093895;28;879;-64
2023/03/05 04:20:52;;;;;;;;;;;;;;;2.24;100.00;99276.75;5093768;28;1905;-64
2023/03/05 04:23:19;;;;;;;;;;;;;;;2.33;100.00;99270.28;5093915;28;859;-66
2023/03/05 04:25:46;;;;;;;;;;;;;;;2.53;100.00;99273.78;5093791;28;835;-66
2023/03/05 04:28:12;;;;;;;;;;;;;;;2.54;100.00;99269.88;5093798;28;945;-66
2023/03/05 04:30:39;;;;;;;;;;;;;;;2.54;100.00;99267.97;5093676;28;871;-66
2023/03/05 04:33:06;;;;;;;;;;;;;;;2.74;100.00;99265.19;5093937;28;836;-66
2023/03/05 04:35:32;;;;;;;;;;;;;;;2.87;100.00;99263.84;5093708;28;823;-65
2023/03/05 04:37:59;;;;;;;;;;;;;;;2.90;100.00;99274.03;5093634;28;811;-65
2023/03/05 04:40:25;;;;;;;;;;;;;;;3.00;100.00;99272.66;5093523;28;1886;-65
2023/03/05 04:42:52;;;;;;;;;;;;;;;3.03;100.00;99269.19;5093421;28;804;-66
2023/03/05 04:45:18;;;;;;;;;;;;;;;3.03;100.00;99272.72;5093485;28;851;-66
2023/03/05 04:47:45;;;;;;;;;;;;;;;3.00;100.00;99273.44;5093438;28;828;-67
2023/03/05 04:50:12;;;;;;;;;;;;;;;2.96;100.00;99278.03;5093379;28;889;-67
2023/03/05 04:52:39;;;;;;;;;;;;;;;2.97;100.00;99273.41;5093290;28;893;-67
2023/03/05 04:55:06;;;;;;;;;;;;;;;2.98;100.00;99277.69;5093336;28;811;-65
2023/03/05 04:57:34;;;;;;;;;;;;;;;3.03;100.00;99280.91;5092995;28;827;-65
2023/03/05 05:00:00;;;;;;;;;;;;;;;3.11;100.00;99283.75;5093251;28;1027;-65
2023/03/05 05:02:27;;;;;;;;;;;;;;;3.15;100.00;99287.34;5093386;28;1890;-65
2023/03/05 05:04:53;;;;;;;;;;;;;;;3.17;100.00;99288.53;5093168;28;886;-67
2023/03/05 05:07:20;;;;;;;;;;;;;;;3.14;100.00;99286.56;5093087;28;827;-67
2023/03/05 05:09:46;;;;;;;;;;;;;;;3.05;100.00;99288.72;5092995;28;1248;-65
2023/03/05 05:12:13;;;;;;;;;;;;;;;2.95;100.00;99283.88;5092958;28;871;-66
2023/03/05 05:14:39;;;;;;;;;;;;;;;2.85;100.00;99283.31;5092959;28;883;-66
2023/03/05 05:17:06;;;;;;;;;;;;;;;2.79;100.00;99286.72;5092867;28;847;-66
2023/03/05 05:19:33;;;;;;;;;;;;;;;2.76;100.00;99284.72;5092704;28;930;-66
2023/03/05 05:22:00;;;;;;;;;;;;;;;2.72;100.00;99284.66;5092704;28;1970;-66
2023/03/05 05:24:26;;;;;;;;;;;;;;;2.79;100.00;99284.75;5092696;28;922;-66
2023/03/05 05:26:55;;;;;;;;;;;;;;;2.80;100.00;99297.28;5092730;28;878;-66
2023/03/05 05:29:22;;;;;;;;;;;;;;;2.85;100.00;99304.38;5092893;28;879;-66
2023/03/05 05:31:49;;;;;;;;;;;;;;;2.91;100.00;99302.94;5092524;28;828;-66
2023/03/05 05:34:15;;;;;;;;;;;;;;;3.06;100.00;99301.22;5091172;28;1359;-66
2023/03/05 05:36:42;;;;;;;;;;;;;;;3.21;100.00;99299.53;5091247;28;1159;-67
2023/03/05 05:39:08;;;;;;;;;;;;;;;3.34;100.00;99309.09;5092404;28;907;-67
2023/03/05 05:41:35;;;;;;;;;;;;;;;3.40;100.00;99295.94;5092356;28;1886;-67
2023/03/05 05:44:02;;;;;;;;;;;;;;;3.43;100.00;99300.66;5092356;28;882;-68
2023/03/05 05:46:28;;;;;;;;;;;;;;;3.54;100.00;99314.47;5092289;28;827;-66
2023/03/05 05:48:55;;;;;;;;;;;;;;;3.67;100.00;99310.41;5092247;28;835;-66
2023/03/05 05:51:22;;;;;;;;;;;;;;;3.86;100.00;99323.97;5092174;28;819;-66
2023/03/05 05:53:48;;;;;;;;;;;;;;;4.16;100.00;99320.47;5090905;28;2022;-66
2023/03/05 05:56:18;;;;;;;;;;;;;;;4.34;100.00;99326.16;5092135;28;823;-67
2023/03/05 05:58:46;;;;;;;;;;;;;;;4.58;100.00;99324.88;5092044;28;886;-67
2023/03/05 06:01:33;;;;;;;;;;;;;;;4.67;100.00;99319.09;5091946;28;1894;-66
2023/03/05 06:03:59;;;;;;;;;;;;;;;4.90;100.00;99324.44;5091847;28;1166;-66
2023/03/05 06:06:26;;;;;;;;;;;;;;;5.14;100.00;99325.06;5090667;28;1306;-66
2023/03/05 06:08:53;;;;;;;;;;;;;;;5.43;100.00;99321.41;5091511;28;1010;-66
2023/03/05 06:11:20;;;;;;;;;;;;;;;5.73;100.00;99323.97;5091664;28;1236;-67
2023/03/05 06:13:46;;;;;;;;;;;;;;;5.77;100.00;99318.50;5091896;28;902;-67
2023/03/05 06:16:14;;;;;;;;;;;;;;;6.12;100.00;99322.66;5091877;28;866;-66
2023/03/05 06:18:41;;;;;;;;;;;;;;;6.74;100.00;99328.03;5091603;28;799;-67
2023/03/05 06:21:08;;;;;;;;;;;;;;;7.42;100.00;99321.84;5092038;28;1976;-65
2023/03/05 06:23:35;;;;;;;;;;;;;;;8.54;100.00;99334.22;5091777;28;902;-65
2023/03/05 06:26:03;;;;;;;;;;;;;;;9.20;100.00;99327.97;5091760;28;831;-64
2023/03/05 06:28:30;;;;;;;;;;;;;;;9.69;100.00;99335.47;5091771;28;807;-64
2023/03/05 06:31:02;;;;;;;;;;;;;;;9.74;100.00;99332.25;5091787;28;824;-64
2023/03/05 06:33:29;;;;;;;;;;;;;;;9.55;100.00;99330.84;5091823;28;886;-65
2023/03/05 06:35:56;;;;;;;;;;;;;;;8.97;100.00;99334.00;5091628;28;847;-66
2023/03/05 06:38:22;;;;;;;;;;;;;;;9.03;100.00;99322.56;5091618;28;804;-65
2023/03/05 06:40:49;;;;;;;;;;;;;;;9.17;100.00;99323.25;5091481;28;1886;-65
2023/03/05 06:43:16;;;;;;;;;;;;;;;9.09;100.00;99320.94;5091725;28;835;-65
2023/03/05 06:45:42;;;;;;;;;;;;;;;8.89;100.00;99320.66;5091531;28;814;-65
2023/03/05 06:48:10;;;;;;;;;;;;;;;9.07;100.00;99320.56;5091312;28;835;-65
2023/03/05 06:51:05;;;;;;;;;;;;;;;9.74;100.00;99326.75;5091442;28;815;-63
2023/03/05 06:56:34;;;;;;;;;;;;;;;10.98;100.00;99328.50;5091477;28;635;-61
2023/03/05 06:59:02;;;;;;;;;;;;;;;11.17;100.00;99329.81;5091341;28;819;-62
2023/03/05 07:01:27;;;;;;;;;;;;;;;11.43;100.00;99325.44;5091239;28;1955;-63
2023/03/05 07:03:54;;;;;;;;;;;;;;;11.60;100.00;99318.06;5091357;28;827;-64
2023/03/05 07:06:21;;;;;;;;;;;;;;;11.32;100.00;99324.84;5091304;28;868;-64
2023/03/05 07:08:48;;;;;;;;;;;;;;;11.12;100.00;99322.75;5091497;28;1057;-67
2023/03/05 07:11:16;;;;;;;;;;;;;;;11.10;100.00;99325.16;5090936;28;1170;-66
2023/03/05 07:13:43;;;;;;;;;;;;;;;11.41;100.00;99319.53;5091394;28;835;-65
2023/03/05 07:16:12;;;;;;;;;;;;;;;12.29;100.00;99312.88;5091285;28;873;-65
2023/03/05 07:18:38;;;;;;;;;;;;;;;12.65;100.00;99314.91;5091099;28;865;-66
2023/03/05 07:21:06;;;;;;;;;;;;;;;12.90;100.00;99308.06;5093559;28;1918;-63
2023/03/05 07:23:41;;;;;;;;;;;;;;;12.97;100.00;99305.09;5095063;28;922;-62
2023/03/05 07:26:10;;;;;;;;;;;;;;;13.18;100.00;99298.28;5095027;28;914;-63
2023/03/05 07:28:36;;;;;;;;;;;;;;;13.10;100.00;99314.34;5094935;28;867;-63
2023/03/05 07:31:04;;;;;;;;;;;;;;;13.10;100.00;99307.97;5095000;28;935;-63
2023/03/05 07:33:32;;;;;;;;;;;;;;;13.36;100.00;99298.69;5095075;28;839;-62
2023/03/05 07:35:58;;;;;;;;;;;;;;;13.52;98.57;99295.09;5094792;28;983;-62
2023/03/05 07:38:27;;;;;;;;;;;;;;;14.23;97.69;99294.44;5094863;28;851;-62
2023/03/05 07:40:54;;;;;;;;;;;;;;;14.70;93.04;99291.13;5094606;28;1932;-62
2023/03/05 07:43:20;;;;;;;;;;;;;;;14.87;89.68;99289.03;5094735;28;807;-62
2023/03/05 07:45:47;;;;;;;;;;;;;;;15.12;88.93;99285.47;5094622;28;875;-62
2023/03/05 07:48:16;;;;;;;;;;;;;;;15.65;86.12;99282.16;5094502;28;854;-62
2023/03/05 07:50:43;;;;;;;;;;;;;;;15.49;83.95;99280.28;5094501;28;862;-62
2023/03/05 07:53:10;;;;;;;;;;;;;;;15.90;87.57;99276.53;5094571;28;972;-62
2023/03/05 07:55:47;;;;;;;;;;;;;;;15.86;84.42;99272.31;5094388;28;850;-62
2023/03/05 07:58:13;;;;;;;;;;;;;;;16.18;88.42;99267.63;5094308;28;1014;-62
2023/03/05 08:00:40;;;;;;;;;;;;;;;16.82;72.33;99261.66;5094257;28;1951;-62
2023/03/05 08:03:07;;;;;;;;;;;;;;;16.89;70.12;99253.00;5094339;28;807;-62
2023/03/05 08:05:33;;;;;;;;;;;;;;;17.04;59.87;99258.78;5094159;28;831;-62
2023/03/05 08:08:00;;;;;;;;;;;;;;;16.17;57.97;99258.44;5094218;28;1046;-63
2023/03/05 08:10:26;;;;;;;;;;;;;;;15.74;58.19;99262.00;5093853;28;1338;-63
2023/03/05 08:12:53;;;;;;;;;;;;;;;16.32;58.20;99250.34;5094369;28;843;-63
2023/03/05 08:15:20;;;;;;;;;;;;;;;16.54;57.28;99245.53;5094058;28;900;-62
2023/03/05 08:17:46;;;;;;;;;;;;;;;15.54;56.71;99246.31;5093988;28;855;-63
2023/03/05 08:20:13;;;;;;;;;;;;;;;16.14;57.96;99251.00;5094002;28;835;-63
2023/03/05 08:22:39;;;;;;;;;;;;;;;15.99;57.06;99245.16;5093835;28;1909;-63
2023/03/05 08:25:07;;;;;;;;;;;;;;;15.88;57.08;99239.22;5093822;28;855;-63
2023/03/05 08:27:37;;;;;;;;;;;;;;;15.25;56.81;99238.91;5093817;28;816;-66
2023/03/05 08:30:03;;;;;;;;;;;;;;;14.99;57.49;99240.94;5093757;28;819;-66
2023/03/05 08:32:29;;;;;;;;;;;;;;;14.67;57.11;99239.94;5092972;28;812;-66
2023/03/05 08:35:03;;;;;;;;;;;;;;;13.96;55.72;99245.56;5093697;28;862;-72
2023/03/05 08:37:30;;;;;;;;;;;;;;;13.31;58.24;99238.13;5093662;28;818;-71
2023/03/05 08:39:56;;;;;;;;;;;;;;;12.80;59.54;99230.22;5093565;28;839;-68
2023/03/05 08:42:23;;;;;;;;;;;;;;;12.37;60.28;99233.91;5093814;28;1953;-69
2023/03/05 08:44:50;;;;;;;;;;;;;;;12.26;61.78;99236.13;5093500;28;867;-69
2023/03/05 08:47:19;;;;;;;;;;;;;;;12.13;63.24;99227.69;5093337;28;827;-69
2023/03/05 08:49:46;;;;;;;;;;;;;;;11.97;62.85;99233.97;5093810;28;855;-68
2023/03/05 08:52:12;;;;;;;;;;;;;;;12.51;63.21;99230.06;5093775;28;856;-67
2023/03/05 08:54:39;;;;;;;;;;;;;;;13.39;61.24;99222.09;5093261;28;922;-67
2023/03/05 08:57:05;;;;;;;;;;;;;;;13.84;57.94;99216.50;5093243;28;839;-66
2023/03/05 08:59:31;;;;;;;;;;;;;;;13.76;56.03;99214.38;5093228;28;866;-67
2023/03/05 09:02:00;;;;;;;;;;;;;;;13.89;58.43;99202.09;5093080;28;1886;-66
2023/03/05 09:04:27;;;;;;;;;;;;;;;13.98;59.76;99187.56;5093091;28;872;-70
2023/03/05 09:06:53;;;;;;;;;;;;;;;14.19;59.96;99205.63;5093099;28;867;-68
2023/03/05 09:09:21;;;;;;;;;;;;;;;15.18;57.81;99205.75;5091833;28;1198;-68
2023/03/05 09:11:50;;;;;;;;;;;;;;;15.57;57.19;99200.84;5092955;28;847;-66
2023/03/05 09:14:17;;;;;;;;;;;;;;;15.64;55.86;99200.63;5093226;28;933;-66
2023/03/05 09:16:43;;;;;;;;;;;;;;;16.03;55.28;99203.25;5093068;28;850;-62
2023/03/05 09:19:11;;;;;;;;;;;;;;;16.48;51.34;99211.09;5093541;28;764;-63
2023/03/05 10:09:35;;;;;;;;;;;;;;;14.33;52.15;99168.25;5670989;22;1510;-58
2023/03/05 10:12:15;;;;;;;;;;;;;;;14.27;52.55;99156.13;5071680;28;886;-58
2023/03/05 10:14:42;;;;;;;;;;;;;;;14.34;52.91;99160.69;5071904;28;882;-58
2023/03/05 10:17:14;;;;;;;;;;;;;;;14.54;53.19;99143.81;5071558;28;811;-58
2023/03/05 10:20:03;;;;;;;;;;;;;;;14.49;54.14;99145.94;5071636;28;906;-58
2023/03/05 10:22:40;;;;;;;;;;;;;;;14.94;53.76;99152.47;5071381;28;1901;-58
2023/03/05 10:25:14;;;;;;;;;;;;;;;15.24;53.37;99141.94;5071387;28;1149;-58
2023/03/05 10:27:48;;;;;;;;;;;;;;;15.37;53.13;99144.69;5071557;28;799;-58
2023/03/05 10:30:26;;;;;;;;;;;;;;;15.09;53.04;99142.41;5071391;28;887;-58
2023/03/05 10:32:59;;;;;;;;;;;;;;;15.14;53.40;99137.50;5071721;28;1028;-58
2023/03/05 10:35:26;;;;;;;;;;;;;;;15.28;53.23;99134.25;5071423;28;827;-58
2023/03/05 10:37:59;;;;;;;;;;;;;;;15.14;53.34;99126.38;5071453;28;851;-58
2023/03/05 10:40:41;;;;;;;;;;;;;;;15.41;53.49;99115.47;5071537;28;875;-58
2023/03/05 10:43:07;;;;;;;;;;;;;;;15.54;53.31;99121.00;5071307;28;894;-58
2023/03/05 10:45:44;;;;;;;;;;;;;;;15.42;54.46;99116.25;5071363;28;906;-58
2023/03/05 10:48:20;;;;;;;;;;;;;;;14.95;53.60;99103.94;5071559;28;824;-58
2023/03/05 10:50:59;;;;;;;;;;;;;;;14.22;53.01;99101.88;5071225;28;871;-58
2023/03/05 10:53:27;;;;;;;;;;;;;;;13.92;55.28;99096.88;5071239;28;831;-58
2023/03/05 10:55:57;;;;;;;;;;;;;;;13.85;55.77;99106.19;5073365;28;827;-58
2023/03/05 10:58:24;;;;;;;;;;;;;;;13.92;56.43;99096.88;5057236;28;1558;-58
2023/03/05 11:01:06;;;;;;;;;;;;;;;14.01;56.13;99092.19;5075119;28;1949;-58
2023/03/05 11:03:51;;;;;;;;;;;;;;;13.96;56.16;99095.53;5075825;28;846;-58
2023/03/05 11:06:27;;;;;;;;;;;;;;;13.94;56.38;99088.88;5057042;28;1547;-58
2023/03/05 11:08:54;;;;;;;;;;;;;;;13.84;57.00;99091.50;5075205;28;1075;-58
2023/03/05 11:11:22;;;;;;;;;;;;;;;13.67;57.19;99088.03;5074780;28;1362;-58
2023/03/05 11:13:59;;;;;;;;;;;;;;;13.55;57.91;99085.22;5074962;28;914;-58
2023/03/05 11:16:29;;;;;;;;;;;;;;;13.47;58.26;99070.78;5074909;28;878;-58
2023/03/05 11:19:14;;;;;;;;;;;;;;;13.44;58.87;99072.44;5074976;28;819;-58
2023/03/05 11:21:42;;;;;;;;;;;;;;;13.42;59.06;99065.75;5074717;28;1969;-58
2023/03/05 11:24:13;;;;;;;;;;;;;;;13.39;59.34;99061.09;5074713;28;819;-58
2023/03/05 11:26:50;;;;;;;;;;;;;;;13.39;59.36;99050.75;5056826;28;1223;-58
2023/03/05 11:29:22;;;;;;;;;;;;;;;13.30;59.75;99053.41;5074605;28;867;-58
2023/03/05 11:31:49;;;;;;;;;;;;;;;13.15;61.51;99044.69;5074612;28;873;-58
2023/03/05 11:34:15;;;;;;;;;;;;;;;13.20;62.11;99044.13;5056602;28;862;-58
2023/03/05 11:37:05;;;;;;;;;;;;;;;13.26;61.90;99055.47;5074533;28;792;-58
2023/03/05 11:39:35;;;;;;;;;;;;;;;13.29;62.97;99049.06;5074694;28;878;-58
2023/03/05 11:42:08;;;;;;;;;;;;;;;13.37;62.94;99044.88;5074385;28;1889;-58
2023/03/05 11:44:35;;;;;;;;;;;;;;;13.39;62.75;99044.44;5074707;28;828;-58
2023/03/05 11:47:17;;;;;;;;;;;;;;;13.28;62.46;99051.06;5074351;28;870;-58
2023/03/05 11:49:44;;;;;;;;;;;;;;;13.26;63.38;99047.16;5074631;28;816;-58
2023/03/05 11:52:26;;;;;;;;;;;;;;;13.16;64.07;99046.22;5074445;28;855;-58
2023/03/05 11:54:56;;;;;;;;;;;;;;;12.99;65.05;99037.16;5074212;28;871;-58
2023/03/05 11:57:24;;;;;;;;;;;;;;;12.94;66.14;99039.72;5074170;28;926;-58
2023/03/05 11:59:53;;;;;;;;;;;;;;;12.85;66.77;99041.09;5056172;28;1267;-58
2023/03/05 12:02:22;;;;;;;;;;;;;;;12.85;67.42;99032.03;5074503;28;1889;-58
2023/03/05 12:04:48;;;;;;;;;;;;;;;12.88;67.44;99031.91;5074249;28;835;-58
2023/03/05 12:07:18;;;;;;;;;;;;;;;12.82;67.40;99030.09;5072965;28;792;-58
2023/03/05 12:09:48;;;;;;;;;;;;;;;12.80;68.07;99032.53;5073953;28;1399;-59
2023/03/05 12:12:35;;;;;;;;;;;;;;;12.79;67.98;99026.22;5073918;28;812;-58
2023/03/05 12:15:20;;;;;;;;;;;;;;;12.76;67.66;99035.41;5073932;28;816;-58
2023/03/05 12:18:01;;;;;;;;;;;;;;;12.79;67.81;99026.22;5073763;28;839;-58
2023/03/05 12:20:30;;;;;;;;;;;;;;;12.77;67.80;99020.31;5074111;28;883;-59
2023/03/05 12:22:57;;;;;;;;;;;;;;;12.76;68.13;99020.75;5073684;28;836;-58
2023/03/05 12:25:23;;;;;;;;;;;;;;;12.74;68.24;99026.75;5073654;28;874;-58
2023/03/05 12:27:50;;;;;;;;;;;;;;;12.76;68.67;99016.00;5073581;28;878;-59
2023/03/05 12:30:35;;;;;;;;;;;;;;;12.79;69.11;99017.91;5073544;28;898;-58
2023/03/05 12:33:02;;;;;;;;;;;;;;;12.74;69.59;99009.31;5073805;28;867;-58
2023/03/05 12:35:30;;;;;;;;;;;;;;;12.68;69.58;99014.63;5073456;28;880;-58
2023/03/05 12:37:58;;;;;;;;;;;;;;;12.62;69.81;99011.59;5073341;28;859;-58
2023/03/05 12:40:28;;;;;;;;;;;;;;;12.60;70.03;99005.72;5073268;28;820;-58
2023/03/05 12:43:13;;;;;;;;;;;;;;;12.57;70.08;99008.59;5073228;28;1953;-58
2023/03/05 12:45:40;;;;;;;;;;;;;;;12.54;70.25;99001.91;5073289;28;843;-58
2023/03/05 12:48:10;;;;;;;;;;;;;;;12.51;70.88;98994.47;5073157;28;915;-58
2023/03/05 12:50:37;;;;;;;;;;;;;;;12.50;71.28;98995.66;5073209;28;890;-59
2023/03/05 12:53:03;;;;;;;;;;;;;;;12.48;71.55;98994.56;5073074;28;812;-58
2023/03/05 12:55:33;;;;;;;;;;;;;;;12.44;70.84;98987.13;5073027;28;811;-58
2023/03/05 12:58:06;;;;;;;;;;;;;;;12.48;71.20;98983.47;5073282;28;843;-58
2023/03/05 13:00:38;;;;;;;;;;;;;;;12.47;71.81;98982.69;5073029;28;803;-58
2023/03/05 13:03:09;;;;;;;;;;;;;;;12.39;72.01;98986.84;5073123;28;918;-58
2023/03/05 13:05:36;;;;;;;;;;;;;;;12.38;72.35;98983.31;5073063;28;816;-58
2023/03/05 13:08:12;;;;;;;;;;;;;;;12.42;72.45;98988.78;5072747;28;928;-58
2023/03/05 13:10:39;;;;;;;;;;;;;;;12.41;72.60;98979.66;5072580;28;1434;-58
2023/03/05 13:13:05;;;;;;;;;;;;;;;12.43;72.89;98984.78;5072672;28;810;-58
2023/03/05 13:15:33;;;;;;;;;;;;;;;12.44;72.99;98983.59;5072624;28;899;-58
2023/03/05 13:18:06;;;;;;;;;;;;;;;12.47;73.08;98971.59;5072569;28;883;-58
2023/03/05 13:20:41;;;;;;;;;;;;;;;12.53;73.56;98972.66;5072596;28;866;-58
2023/03/05 13:23:20;;;;;;;;;;;;;;;12.56;74.05;98963.44;5072450;28;865;-58
2023/03/05 13:25:57;;;;;;;;;;;;;;;12.54;74.17;98965.09;5072414;28;853;-58
2023/03/05 13:28:24;;;;;;;;;;;;;;;12.52;73.92;98962.75;5072474;28;929;-58
2023/03/05 13:30:52;;;;;;;;;;;;;;;12.52;74.29;98956.44;5072247;28;895;-58
2023/03/05 13:33:22;;;;;;;;;;;;;;;12.53;74.80;98958.00;5072308;28;867;-58
2023/03/05 13:35:48;;;;;;;;;;;;;;;12.56;74.20;98959.91;5072452;28;890;-58
2023/03/05 13:38:35;;;;;;;;;;;;;;;12.55;73.85;98952.81;5072436;28;876;-58
2023/03/05 13:41:18;;;;;;;;;;;;;;;12.52;73.81;98950.91;5071919;28;1886;-58
2023/03/05 13:43:52;;;;;;;;;;;;;;;12.45;74.60;98951.88;5072073;28;882;-58
2023/03/05 13:46:23;;;;;;;;;;;;;;;12.33;74.00;98950.59;5072073;28;892;-58
2023/03/05 13:48:50;;;;;;;;;;;;;;;12.21;73.89;98943.00;5072236;28;852;-58
2023/03/05 13:51:17;;;;;;;;;;;;;;;12.10;74.33;98945.22;5071994;28;851;-58
2023/03/05 13:53:43;;;;;;;;;;;;;;;12.01;74.74;98945.84;5071916;28;812;-58
2023/03/05 13:56:13;;;;;;;;;;;;;;;11.91;74.04;98944.13;5071991;28;894;-58
2023/03/05 13:58:48;;;;;;;;;;;;;;;11.84;73.54;98942.25;5071874;28;878;-58
2023/03/05 14:01:21;;;;;;;;;;;;;;;11.81;73.28;98941.13;5071924;28;1950;-58
2023/03/05 14:03:52;;;;;;;;;;;;;;;11.83;73.69;98938.72;5054356;28;851;-58